createdAt,value
2023-04-13T00:09:56.049Z,966.04
2023-04-13T00:21:56.506Z,965.94
2023-04-13T00:33:57.265Z,965.92
2023-04-13T00:45:57.460Z,965.76
2023-04-13T00:57:58.128Z,965.91
2023-04-13T01:09:58.372Z,965.82
2023-04-13T01:21:58.795Z,965.86
2023-04-13T01:33:59.467Z,965.75
2023-04-13T01:45:59.696Z,965.77
2023-04-13T01:58:00.142Z,965.53
2023-04-13T02:10:00.591Z,965.63
2023-04-13T02:22:01.062Z,965.70
2023-04-13T02:34:01.581Z,965.63
2023-04-13T02:46:02.055Z,965.68
2023-04-13T02:58:02.465Z,965.66
2023-04-13T03:10:02.860Z,965.70
2023-04-13T03:22:03.391Z,965.62
2023-04-13T03:34:03.761Z,965.78
2023-04-13T03:46:04.290Z,966.04
2023-04-13T03:58:04.658Z,966.11
2023-04-13T04:10:05.152Z,966.32
2023-04-13T04:22:05.637Z,966.47
2023-04-13T04:34:06.092Z,966.58
2023-04-13T04:46:06.558Z,966.82
2023-04-13T04:58:06.942Z,967.01
2023-04-13T05:10:07.396Z,967.12
2023-04-13T05:22:07.859Z,967.23
2023-04-13T05:34:08.320Z,967.45
2023-04-13T05:46:08.788Z,967.51
2023-04-13T05:58:09.192Z,967.62
2023-04-13T06:10:09.688Z,967.83
2023-04-13T06:22:10.107Z,967.78
2023-04-13T06:34:10.569Z,967.87
2023-04-13T06:46:11.048Z,967.84
2023-04-13T06:58:11.463Z,968.02
2023-04-13T07:10:11.923Z,968.24
2023-04-13T07:22:12.367Z,968.38
2023-04-13T07:34:12.808Z,968.46
2023-04-13T07:46:13.337Z,968.54
2023-04-13T07:58:13.744Z,968.67
2023-04-13T08:10:14.171Z,968.80
2023-04-13T08:22:14.633Z,968.88
2023-04-13T08:34:15.094Z,969.05
2023-04-13T08:46:15.571Z,969.04
2023-04-13T08:58:15.981Z,968.98
2023-04-13T09:10:16.461Z,968.99
2023-04-13T09:22:16.934Z,969.00
2023-04-13T09:34:17.368Z,968.95
2023-04-13T09:46:17.829Z,968.78
2023-04-13T09:58:18.258Z,968.65
2023-04-13T10:10:18.738Z,968.60
2023-04-13T10:22:19.148Z,968.61
2023-04-13T10:34:19.641Z,968.63
2023-04-13T10:46:20.102Z,968.68
2023-04-13T10:58:20.580Z,968.62
2023-04-13T11:10:21.015Z,968.58
2023-04-13T11:22:21.439Z,968.67
2023-04-13T11:34:21.903Z,968.75
2023-04-13T11:46:22.397Z,968.71
2023-04-13T11:58:22.783Z,968.55
2023-04-13T12:10:25.206Z,968.63
2023-04-13T12:22:23.966Z,968.49
2023-04-13T12:34:24.172Z,968.54
2023-04-13T12:46:24.642Z,968.64
2023-04-13T12:58:25.051Z,968.42
2023-04-13T13:10:29.696Z,968.41
2023-04-13T13:22:25.980Z,968.43
2023-04-13T13:34:26.398Z,968.45
2023-04-13T13:46:26.913Z,968.41
2023-04-13T13:58:28.090Z,968.38
2023-04-13T14:10:27.807Z,968.47
2023-04-13T14:22:28.231Z,968.52
2023-04-13T14:34:28.713Z,968.58
2023-04-13T14:46:29.147Z,968.52
2023-04-13T14:58:29.755Z,968.43
2023-04-13T15:10:30.050Z,968.37
2023-04-13T15:22:30.538Z,968.42
2023-04-13T15:34:30.963Z,968.31
2023-04-13T15:46:31.622Z,968.27
2023-04-13T15:58:31.873Z,968.24
2023-04-13T16:10:32.322Z,968.41
2023-04-13T16:22:33.288Z,968.52
2023-04-13T16:34:33.232Z,968.41
2023-04-13T16:46:33.757Z,968.47
2023-04-13T16:58:34.106Z,968.55
2023-04-13T17:10:34.553Z,968.37
2023-04-13T17:22:35.029Z,968.43
2023-04-13T17:34:35.527Z,968.41
2023-04-13T17:46:35.920Z,968.57
2023-04-13T17:58:36.375Z,968.56
2023-04-13T18:10:36.885Z,968.82
2023-04-13T18:22:37.325Z,968.68
2023-04-13T18:34:37.769Z,968.64
2023-04-13T18:46:38.248Z,968.64
2023-04-13T18:58:38.721Z,968.41
2023-04-13T19:10:39.088Z,968.45
2023-04-13T19:22:39.549Z,968.59
2023-04-13T19:34:39.970Z,968.62
2023-04-13T19:46:40.486Z,968.55
2023-04-13T19:58:40.900Z,968.53
2023-04-13T20:10:41.326Z,968.47
2023-04-13T20:22:41.819Z,968.26
2023-04-13T20:34:42.319Z,968.18
2023-04-13T20:46:42.774Z,967.66
2023-04-13T20:58:43.149Z,967.42
2023-04-13T21:10:43.619Z,967.20
2023-04-13T21:22:44.098Z,967.04
2023-04-13T21:34:44.513Z,966.83
2023-04-13T21:46:44.968Z,966.60
2023-04-13T21:58:45.441Z,966.50
2023-04-13T22:10:45.891Z,966.38
2023-04-13T22:22:46.314Z,966.13
2023-04-13T22:34:46.777Z,965.92
2023-04-13T22:46:47.273Z,966.06
2023-04-13T22:58:47.733Z,965.85
2023-04-13T23:10:48.126Z,965.68
2023-04-13T23:22:48.569Z,965.55
2023-04-13T23:34:49.032Z,965.58
2023-04-13T23:46:49.521Z,965.50
2023-04-13T23:58:58.858Z,965.56
